sensor_id;sensor_type;location;lat;lon;timestamp;pressure;altitude;pressure_sealevel;temperature;humidity
47742;BME280;33504;52.066;6.096;2024-01-11T00:01:14;103197.03;;;-2.31;36.74
47742;BME280;33504;52.066;6.096;2024-01-11T00:03:41;103198.30;;;-2.12;36.90
47742;BME280;33504;52.066;6.096;2024-01-11T00:06:08;103194.33;;;-2.13;37.03
47742;BME280;33504;52.066;6.096;2024-01-11T00:08:35;103195.03;;;-2.36;36.96
47742;BME280;33504;52.066;6.096;2024-01-11T00:11:02;103196.91;;;-2.38;37.22
47742;BME280;33504;52.066;6.096;2024-01-11T00:13:29;103200.50;;;-2.38;37.20
47742;BME280;33504;52.066;6.096;2024-01-11T00:15:56;103205.12;;;-2.38;37.06
47742;BME280;33504;52.066;6.096;2024-01-11T00:18:23;103211.48;;;-2.16;36.97
47742;BME280;33504;52.066;6.096;2024-01-11T00:20:51;103214.05;;;-2.36;37.01
47742;BME280;33504;52.066;6.096;2024-01-11T00:23:18;103217.49;;;-2.35;37.01
47742;BME280;33504;52.066;6.096;2024-01-11T00:25:46;103218.07;;;-2.37;37.06
47742;BME280;33504;52.066;6.096;2024-01-11T00:28:13;103216.76;;;-2.38;36.97
47742;BME280;33504;52.066;6.096;2024-01-11T00:30:40;103217.02;;;-2.39;36.93
47742;BME280;33504;52.066;6.096;2024-01-11T00:33:07;103213.79;;;-2.41;36.82
47742;BME280;33504;52.066;6.096;2024-01-11T00:35:34;103211.87;;;-2.21;36.97
47742;BME280;33504;52.066;6.096;2024-01-11T00:38:01;103210.70;;;-2.46;36.84
47742;BME280;33504;52.066;6.096;2024-01-11T00:40:28;103208.51;;;-2.48;36.82
47742;BME280;33504;52.066;6.096;2024-01-11T00:42:55;103209.24;;;-2.29;36.91
47742;BME280;33504;52.066;6.096;2024-01-11T00:45:22;103208.78;;;-2.54;37.05
47742;BME280;33504;52.066;6.096;2024-01-11T00:47:50;103211.75;;;-2.33;36.96
47742;BME280;33504;52.066;6.096;2024-01-11T00:50:17;103213.48;;;-2.56;37.04
47742;BME280;33504;52.066;6.096;2024-01-11T00:52:44;103211.09;;;-2.56;36.88
47742;BME280;33504;52.066;6.096;2024-01-11T00:55:10;103208.79;;;-2.36;36.85
47742;BME280;33504;52.066;6.096;2024-01-11T00:57:38;103208.20;;;-2.62;36.76
47742;BME280;33504;52.066;6.096;2024-01-11T01:00:06;103212.99;;;-2.67;36.92
47742;BME280;33504;52.066;6.096;2024-01-11T01:02:34;103212.80;;;-2.48;36.91
47742;BME280;33504;52.066;6.096;2024-01-11T01:05:01;103212.02;;;-2.49;37.04
47742;BME280;33504;52.066;6.096;2024-01-11T01:07:29;103212.39;;;-2.28;37.09
47742;BME280;33504;52.066;6.096;2024-01-11T01:09:56;103209.92;;;-2.53;37.20
47742;BME280;33504;52.066;6.096;2024-01-11T01:12:23;103205.72;;;-2.54;37.25
47742;BME280;33504;52.066;6.096;2024-01-11T01:14:51;103211.69;;;-2.33;37.20
47742;BME280;33504;52.066;6.096;2024-01-11T01:17:18;103212.86;;;-2.58;37.24
47742;BME280;33504;52.066;6.096;2024-01-11T01:19:45;103219.62;;;-2.61;37.43
47742;BME280;33504;52.066;6.096;2024-01-11T01:22:12;103219.86;;;-2.64;37.37
47742;BME280;33504;52.066;6.096;2024-01-11T01:24:40;103225.62;;;-2.42;37.44
47742;BME280;33504;52.066;6.096;2024-01-11T01:27:07;103229.18;;;-2.67;37.43
47742;BME280;33504;52.066;6.096;2024-01-11T01:29:34;103228.08;;;-2.68;37.39
47742;BME280;33504;52.066;6.096;2024-01-11T01:32:02;103223.71;;;-2.52;37.47
47742;BME280;33504;52.066;6.096;2024-01-11T01:34:29;103226.26;;;-2.75;37.55
47742;BME280;33504;52.066;6.096;2024-01-11T01:36:56;103230.76;;;-2.54;37.54
47742;BME280;33504;52.066;6.096;2024-01-11T01:39:24;103231.07;;;-2.83;37.40
47742;BME280;33504;52.066;6.096;2024-01-11T01:41:51;103230.69;;;-2.66;37.48
47742;BME280;33504;52.066;6.096;2024-01-11T01:44:18;103234.37;;;-2.72;37.49
47742;BME280;33504;52.066;6.096;2024-01-11T01:46:45;103234.23;;;-3.01;37.58
47742;BME280;33504;52.066;6.096;2024-01-11T01:49:13;103228.37;;;-2.83;37.72
47742;BME280;33504;52.066;6.096;2024-01-11T01:51:41;103225.66;;;-3.09;37.76
47742;BME280;33504;52.066;6.096;2024-01-11T01:54:08;103228.82;;;-2.86;37.80
47742;BME280;33504;52.066;6.096;2024-01-11T01:56:34;103232.21;;;-2.89;37.72
47742;BME280;33504;52.066;6.096;2024-01-11T01:59:03;103239.95;;;-2.91;37.68
47742;BME280;33504;52.066;6.096;2024-01-11T02:01:31;103247.94;;;-3.36;37.76
47742;BME280;33504;52.066;6.096;2024-01-11T02:03:59;103251.97;;;-2.90;37.84
47742;BME280;33504;52.066;6.096;2024-01-11T02:06:27;103251.02;;;-2.88;38.00
47742;BME280;33504;52.066;6.096;2024-01-11T02:08:56;103249.31;;;-3.08;37.90
47742;BME280;33504;52.066;6.096;2024-01-11T02:11:24;103247.73;;;-3.03;37.98
47742;BME280;33504;52.066;6.096;2024-01-11T02:13:51;103249.67;;;-2.78;38.01
47742;BME280;33504;52.066;6.096;2024-01-11T02:16:18;103250.27;;;-3.00;37.98
47742;BME280;33504;52.066;6.096;2024-01-11T02:18:46;103249.45;;;-3.00;38.01
47742;BME280;33504;52.066;6.096;2024-01-11T02:21:15;103250.63;;;-3.01;37.99
47742;BME280;33504;52.066;6.096;2024-01-11T02:23:44;103244.57;;;-2.86;38.07
47742;BME280;33504;52.066;6.096;2024-01-11T02:26:13;103242.63;;;-2.90;38.22
47742;BME280;33504;52.066;6.096;2024-01-11T02:28:44;103246.80;;;-2.91;38.37
47742;BME280;33504;52.066;6.096;2024-01-11T02:31:12;103248.29;;;-2.98;38.21
47742;BME280;33504;52.066;6.096;2024-01-11T02:33:40;103249.66;;;-3.10;38.19
47742;BME280;33504;52.066;6.096;2024-01-11T02:36:08;103245.26;;;-3.29;38.45
47742;BME280;33504;52.066;6.096;2024-01-11T02:38:36;103243.24;;;-3.29;38.45
47742;BME280;33504;52.066;6.096;2024-01-11T02:41:05;103238.76;;;-3.31;38.47
47742;BME280;33504;52.066;6.096;2024-01-11T02:43:33;103233.33;;;-3.31;38.60
47742;BME280;33504;52.066;6.096;2024-01-11T02:46:00;103231.11;;;-3.31;38.65
47742;BME280;33504;52.066;6.096;2024-01-11T02:48:28;103227.85;;;-3.31;38.68
47742;BME280;33504;52.066;6.096;2024-01-11T02:50:55;103226.95;;;-3.30;38.92
47742;BME280;33504;52.066;6.096;2024-01-11T02:53:22;103225.68;;;-3.27;38.92
47742;BME280;33504;52.066;6.096;2024-01-11T02:55:49;103220.24;;;-3.50;38.89
47742;BME280;33504;52.066;6.096;2024-01-11T02:58:17;103218.29;;;-3.27;38.88
47742;BME280;33504;52.066;6.096;2024-01-11T03:00:43;103222.34;;;-3.25;38.95
47742;BME280;33504;52.066;6.096;2024-01-11T03:03:10;103222.99;;;-3.20;38.93
47742;BME280;33504;52.066;6.096;2024-01-11T03:05:38;103224.39;;;-3.17;38.91
47742;BME280;33504;52.066;6.096;2024-01-11T03:08:05;103233.32;;;-3.15;38.88
47742;BME280;33504;52.066;6.096;2024-01-11T03:10:32;103240.39;;;-3.14;38.89
47742;BME280;33504;52.066;6.096;2024-01-11T03:12:59;103245.33;;;-3.14;38.81
47742;BME280;33504;52.066;6.096;2024-01-11T03:15:26;103250.64;;;-3.37;38.71
47742;BME280;33504;52.066;6.096;2024-01-11T03:17:53;103251.40;;;-3.15;38.67
47742;BME280;33504;52.066;6.096;2024-01-11T03:20:19;103247.00;;;-3.46;38.59
47742;BME280;33504;52.066;6.096;2024-01-11T03:22:47;103239.49;;;-3.56;38.67
47742;BME280;33504;52.066;6.096;2024-01-11T03:25:14;103240.69;;;-3.38;38.79
47742;BME280;33504;52.066;6.096;2024-01-11T03:27:41;103240.68;;;-3.65;38.76
47742;BME280;33504;52.066;6.096;2024-01-11T03:30:09;103238.05;;;-3.49;38.90
47742;BME280;33504;52.066;6.096;2024-01-11T03:32:36;103233.49;;;-3.53;39.06
47742;BME280;33504;52.066;6.096;2024-01-11T03:35:04;103235.49;;;-3.54;39.07
47742;BME280;33504;52.066;6.096;2024-01-11T03:37:32;103240.77;;;-3.57;39.00
47742;BME280;33504;52.066;6.096;2024-01-11T03:39:59;103236.93;;;-3.64;39.18
47742;BME280;33504;52.066;6.096;2024-01-11T03:42:26;103241.97;;;-3.81;39.65
47742;BME280;33504;52.066;6.096;2024-01-11T03:44:53;103238.48;;;-3.90;39.90
47742;BME280;33504;52.066;6.096;2024-01-11T03:47:20;103233.00;;;-3.86;39.79
47742;BME280;33504;52.066;6.096;2024-01-11T03:49:46;103238.13;;;-3.88;39.87
47742;BME280;33504;52.066;6.096;2024-01-11T03:52:13;103255.05;;;-3.88;40.00
47742;BME280;33504;52.066;6.096;2024-01-11T03:54:41;103262.34;;;-3.83;39.85
47742;BME280;33504;52.066;6.096;2024-01-11T03:57:08;103260.59;;;-3.80;39.95
47742;BME280;33504;52.066;6.096;2024-01-11T03:59:35;103259.01;;;-3.76;39.93
47742;BME280;33504;52.066;6.096;2024-01-11T04:02:02;103262.93;;;-3.57;40.05
47742;BME280;33504;52.066;6.096;2024-01-11T04:04:29;103263.35;;;-3.81;40.19
47742;BME280;33504;52.066;6.096;2024-01-11T04:06:56;103263.57;;;-3.84;40.02
47742;BME280;33504;52.066;6.096;2024-01-11T04:09:24;103267.28;;;-3.87;39.97
47742;BME280;33504;52.066;6.096;2024-01-11T04:11:51;103268.52;;;-3.87;39.89
47742;BME280;33504;52.066;6.096;2024-01-11T04:14:18;103272.87;;;-3.34;39.85
47742;BME280;33504;52.066;6.096;2024-01-11T04:16:45;103272.60;;;-3.83;39.87
47742;BME280;33504;52.066;6.096;2024-01-11T04:19:13;103272.48;;;-3.57;39.87
47742;BME280;33504;52.066;6.096;2024-01-11T04:21:40;103277.40;;;-3.85;39.99
47742;BME280;33504;52.066;6.096;2024-01-11T04:24:08;103280.28;;;-3.58;40.06
47742;BME280;33504;52.066;6.096;2024-01-11T04:26:35;103283.11;;;-3.88;40.25
47742;BME280;33504;52.066;6.096;2024-01-11T04:29:02;103284.29;;;-3.85;40.27
47742;BME280;33504;52.066;6.096;2024-01-11T04:31:29;103289.34;;;-3.88;40.40
47742;BME280;33504;52.066;6.096;2024-01-11T04:33:56;103291.07;;;-3.55;40.42
47742;BME280;33504;52.066;6.096;2024-01-11T04:36:23;103287.27;;;-3.78;40.38
47742;BME280;33504;52.066;6.096;2024-01-11T04:38:50;103283.91;;;-3.81;40.50
47742;BME280;33504;52.066;6.096;2024-01-11T04:41:17;103286.14;;;-3.85;40.60
47742;BME280;33504;52.066;6.096;2024-01-11T04:43:45;103290.06;;;-3.80;40.57
47742;BME280;33504;52.066;6.096;2024-01-11T04:46:14;103280.23;;;-3.76;40.58
47742;BME280;33504;52.066;6.096;2024-01-11T04:48:41;103283.07;;;-3.75;40.60
47742;BME280;33504;52.066;6.096;2024-01-11T04:51:08;103291.09;;;-3.72;40.61
47742;BME280;33504;52.066;6.096;2024-01-11T04:53:37;103295.72;;;-3.40;40.63
47742;BME280;33504;52.066;6.096;2024-01-11T04:56:07;103290.85;;;-3.39;40.50
47742;BME280;33504;52.066;6.096;2024-01-11T04:58:34;103291.13;;;-3.65;40.42
47742;BME280;33504;52.066;6.096;2024-01-11T05:01:01;103285.59;;;-3.66;40.39
47742;BME280;33504;52.066;6.096;2024-01-11T05:03:29;103288.36;;;-3.73;40.28
47742;BME280;33504;52.066;6.096;2024-01-11T05:05:56;103289.65;;;-3.74;40.25
47742;BME280;33504;52.066;6.096;2024-01-11T05:08:25;103296.59;;;-3.71;40.37
47742;BME280;33504;52.066;6.096;2024-01-11T05:10:52;103296.20;;;-3.63;40.47
47742;BME280;33504;52.066;6.096;2024-01-11T05:13:19;103293.25;;;-3.61;40.52
47742;BME280;33504;52.066;6.096;2024-01-11T05:15:47;103289.95;;;-3.60;40.50
47742;BME280;33504;52.066;6.096;2024-01-11T05:18:15;103289.26;;;-3.59;40.58
47742;BME280;33504;52.066;6.096;2024-01-11T05:20:42;103288.19;;;-3.58;40.63
47742;BME280;33504;52.066;6.096;2024-01-11T05:23:09;103276.34;;;-3.55;40.63
47742;BME280;33504;52.066;6.096;2024-01-11T05:25:37;103265.04;;;-3.56;40.62
47742;BME280;33504;52.066;6.096;2024-01-11T05:28:04;103251.16;;;-3.55;40.71
47742;BME280;33504;52.066;6.096;2024-01-11T05:30:31;103266.56;;;-3.52;40.61
47742;BME280;33504;52.066;6.096;2024-01-11T05:32:58;103274.81;;;-3.48;40.57
47742;BME280;33504;52.066;6.096;2024-01-11T05:35:26;103280.00;;;-3.45;40.61
47742;BME280;33504;52.066;6.096;2024-01-11T05:37:54;103264.08;;;-3.42;40.50
47742;BME280;33504;52.066;6.096;2024-01-11T05:40:21;103255.04;;;-3.44;40.50
47742;BME280;33504;52.066;6.096;2024-01-11T05:42:48;103260.72;;;-3.46;40.50
47742;BME280;33504;52.066;6.096;2024-01-11T05:45:15;103257.51;;;-3.47;40.59
47742;BME280;33504;52.066;6.096;2024-01-11T05:47:43;103256.86;;;-3.65;40.51
47742;BME280;33504;52.066;6.096;2024-01-11T05:50:10;103259.53;;;-3.64;40.48
47742;BME280;33504;52.066;6.096;2024-01-11T05:52:37;103261.48;;;-3.42;40.47
47742;BME280;33504;52.066;6.096;2024-01-11T05:55:05;103261.93;;;-3.45;40.57
47742;BME280;33504;52.066;6.096;2024-01-11T05:57:31;103263.52;;;-3.43;40.61
47742;BME280;33504;52.066;6.096;2024-01-11T05:59:58;103267.33;;;-3.43;40.57
47742;BME280;33504;52.066;6.096;2024-01-11T06:02:25;103269.67;;;-3.46;40.54
47742;BME280;33504;52.066;6.096;2024-01-11T06:04:53;103285.92;;;-3.49;40.61
47742;BME280;33504;52.066;6.096;2024-01-11T06:07:20;103307.85;;;-3.49;40.64
47742;BME280;33504;52.066;6.096;2024-01-11T06:09:47;103321.27;;;-3.49;40.58
47742;BME280;33504;52.066;6.096;2024-01-11T06:12:14;103333.23;;;-3.47;40.56
47742;BME280;33504;52.066;6.096;2024-01-11T06:14:41;103326.94;;;-3.50;40.51
47742;BME280;33504;52.066;6.096;2024-01-11T06:17:08;103334.32;;;-3.54;40.55
47742;BME280;33504;52.066;6.096;2024-01-11T06:19:35;103334.28;;;-3.87;40.72
47742;BME280;33504;52.066;6.096;2024-01-11T06:22:02;103330.78;;;-3.74;40.93
47742;BME280;33504;52.066;6.096;2024-01-11T06:24:29;103335.79;;;-3.84;41.10
47742;BME280;33504;52.066;6.096;2024-01-11T06:26:57;103336.75;;;-3.63;41.27
47742;BME280;33504;52.066;6.096;2024-01-11T06:29:24;103336.63;;;-3.93;41.32
47742;BME280;33504;52.066;6.096;2024-01-11T06:31:51;103339.55;;;-3.75;41.42
47742;BME280;33504;52.066;6.096;2024-01-11T06:34:19;103342.31;;;-4.12;41.75
47742;BME280;33504;52.066;6.096;2024-01-11T06:36:46;103351.59;;;-4.16;41.90
47742;BME280;33504;52.066;6.096;2024-01-11T06:39:13;103354.52;;;-3.89;41.97
47742;BME280;33504;52.066;6.096;2024-01-11T06:41:40;103363.01;;;-3.84;41.92
47742;BME280;33504;52.066;6.096;2024-01-11T06:44:08;103360.29;;;-3.77;41.93
47742;BME280;33504;52.066;6.096;2024-01-11T06:46:35;103368.01;;;-4.03;41.91
47742;BME280;33504;52.066;6.096;2024-01-11T06:49:02;103368.54;;;-3.70;41.96
47742;BME280;33504;52.066;6.096;2024-01-11T06:51:30;103373.45;;;-3.91;42.02
47742;BME280;33504;52.066;6.096;2024-01-11T06:53:57;103368.75;;;-3.86;41.93
47742;BME280;33504;52.066;6.096;2024-01-11T06:56:24;103367.67;;;-3.82;41.88
47742;BME280;33504;52.066;6.096;2024-01-11T06:58:51;103365.36;;;-4.02;42.26
47742;BME280;33504;52.066;6.096;2024-01-11T07:01:19;103368.07;;;-3.92;42.12
47742;BME280;33504;52.066;6.096;2024-01-11T07:03:46;103369.09;;;-3.85;42.08
47742;BME280;33504;52.066;6.096;2024-01-11T07:06:14;103360.58;;;-3.85;42.12
47742;BME280;33504;52.066;6.096;2024-01-11T07:08:41;103357.37;;;-3.89;42.26
47742;BME280;33504;52.066;6.096;2024-01-11T07:11:08;103353.70;;;-3.91;42.42
47742;BME280;33504;52.066;6.096;2024-01-11T07:13:35;103340.81;;;-3.79;42.20
47742;BME280;33504;52.066;6.096;2024-01-11T07:16:03;103329.94;;;-3.84;42.24
47742;BME280;33504;52.066;6.096;2024-01-11T07:18:31;103322.17;;;-3.81;42.22
47742;BME280;33504;52.066;6.096;2024-01-11T07:20:59;103319.61;;;-3.47;42.15
47742;BME280;33504;52.066;6.096;2024-01-11T07:23:26;103320.67;;;-3.68;42.11
47742;BME280;33504;52.066;6.096;2024-01-11T07:25:53;103323.88;;;-3.60;42.07
47742;BME280;33504;52.066;6.096;2024-01-11T07:28:21;103329.82;;;-3.54;41.96
47742;BME280;33504;52.066;6.096;2024-01-11T07:30:49;103332.89;;;-3.48;41.79
47742;BME280;33504;52.066;6.096;2024-01-11T07:33:16;103338.76;;;-3.43;41.76
47742;BME280;33504;52.066;6.096;2024-01-11T07:35:43;103342.19;;;-3.38;41.71
47742;BME280;33504;52.066;6.096;2024-01-11T07:38:11;103347.61;;;-3.35;41.71
47742;BME280;33504;52.066;6.096;2024-01-11T07:40:38;103345.57;;;-3.30;41.67
47742;BME280;33504;52.066;6.096;2024-01-11T07:43:05;103342.34;;;-3.28;41.59
47742;BME280;33504;52.066;6.096;2024-01-11T07:45:32;103332.32;;;-3.30;41.59
47742;BME280;33504;52.066;6.096;2024-01-11T07:48:00;103334.25;;;-3.32;41.61
47742;BME280;33504;52.066;6.096;2024-01-11T07:50:27;103345.44;;;-3.39;41.65
47742;BME280;33504;52.066;6.096;2024-01-11T07:52:54;103342.65;;;-3.41;41.67
47742;BME280;33504;52.066;6.096;2024-01-11T07:55:21;103338.64;;;-3.48;41.79
47742;BME280;33504;52.066;6.096;2024-01-11T07:57:48;103334.81;;;-3.55;41.79
47742;BME280;33504;52.066;6.096;2024-01-11T08:00:16;103341.52;;;-3.60;41.83
47742;BME280;33504;52.066;6.096;2024-01-11T08:02:42;103351.15;;;-3.62;41.91
47742;BME280;33504;52.066;6.096;2024-01-11T08:05:09;103352.72;;;-3.66;41.96
47742;BME280;33504;52.066;6.096;2024-01-11T08:07:36;103344.03;;;-3.88;42.34
47742;BME280;33504;52.066;6.096;2024-01-11T08:10:05;103346.52;;;-3.86;42.32
47742;BME280;33504;52.066;6.096;2024-01-11T08:12:32;103345.69;;;-3.83;42.24
47742;BME280;33504;52.066;6.096;2024-01-11T08:14:59;103355.81;;;-3.81;42.34
47742;BME280;33504;52.066;6.096;2024-01-11T08:17:27;103361.07;;;-3.74;42.37
47742;BME280;33504;52.066;6.096;2024-01-11T08:19:54;103369.33;;;-3.66;42.37
47742;BME280;33504;52.066;6.096;2024-01-11T08:22:22;103365.54;;;-3.65;42.54
47742;BME280;33504;52.066;6.096;2024-01-11T08:24:49;103377.25;;;-3.58;42.48
47742;BME280;33504;52.066;6.096;2024-01-11T08:27:16;103381.40;;;-3.56;42.54
47742;BME280;33504;52.066;6.096;2024-01-11T08:29:44;103387.61;;;-3.44;42.50
47742;BME280;33504;52.066;6.096;2024-01-11T08:32:12;103385.29;;;-3.32;42.49
47742;BME280;33504;52.066;6.096;2024-01-11T08:34:39;103383.24;;;-3.41;42.45
47742;BME280;33504;52.066;6.096;2024-01-11T08:37:06;103391.81;;;-3.15;42.55
47742;BME280;33504;52.066;6.096;2024-01-11T08:39:33;103386.08;;;-3.02;42.48
47742;BME280;33504;52.066;6.096;2024-01-11T08:42:00;103391.85;;;-3.01;42.67
47742;BME280;33504;52.066;6.096;2024-01-11T08:44:28;103385.88;;;-2.88;42.59
47742;BME280;33504;52.066;6.096;2024-01-11T08:46:56;103392.03;;;-2.75;42.57
47742;BME280;33504;52.066;6.096;2024-01-11T08:49:23;103398.63;;;-2.60;42.83
47742;BME280;33504;52.066;6.096;2024-01-11T08:51:50;103393.50;;;-2.32;42.53
47742;BME280;33504;52.066;6.096;2024-01-11T08:54:17;103399.22;;;-2.12;41.91
47742;BME280;33504;52.066;6.096;2024-01-11T08:56:44;103405.12;;;-2.42;41.84
47742;BME280;33504;52.066;6.096;2024-01-11T08:59:12;103408.95;;;-2.44;41.92
47742;BME280;33504;52.066;6.096;2024-01-11T09:01:39;103410.81;;;-2.17;42.00
47742;BME280;33504;52.066;6.096;2024-01-11T09:04:06;103410.48;;;-2.30;42.00
47742;BME280;33504;52.066;6.096;2024-01-11T09:06:50;103404.00;;;-2.35;42.18
47742;BME280;33504;52.066;6.096;2024-01-11T09:09:22;103410.56;;;-2.46;42.36
47742;BME280;33504;52.066;6.096;2024-01-11T09:11:55;103412.08;;;-2.23;42.12
47742;BME280;33504;52.066;6.096;2024-01-11T09:14:34;103410.13;;;-2.36;42.33
47742;BME280;33504;52.066;6.096;2024-01-11T09:17:07;103416.13;;;-2.25;42.31
47742;BME280;33504;52.066;6.096;2024-01-11T09:19:39;103419.44;;;-2.12;42.25
47742;BME280;33504;52.066;6.096;2024-01-11T09:22:28;103429.59;;;-2.31;42.20
47742;BME280;33504;52.066;6.096;2024-01-11T09:24:56;103435.14;;;-2.04;42.30
47742;BME280;33504;52.066;6.096;2024-01-11T09:27:24;103442.57;;;-1.96;42.41
47742;BME280;33504;52.066;6.096;2024-01-11T09:29:51;103437.41;;;-2.00;42.57
47742;BME280;33504;52.066;6.096;2024-01-11T09:32:18;103431.68;;;-2.29;42.73
47742;BME280;33504;52.066;6.096;2024-01-11T09:34:45;103431.99;;;-1.88;42.50
47742;BME280;33504;52.066;6.096;2024-01-11T09:37:13;103430.77;;;-2.08;42.52
47742;BME280;33504;52.066;6.096;2024-01-11T09:39:40;103443.65;;;-1.89;42.39
47742;BME280;33504;52.066;6.096;2024-01-11T09:42:08;103449.27;;;-1.55;42.45
47742;BME280;33504;52.066;6.096;2024-01-11T09:44:36;103450.75;;;-1.39;42.29
47742;BME280;33504;52.066;6.096;2024-01-11T09:47:04;103448.88;;;-1.79;42.30
47742;BME280;33504;52.066;6.096;2024-01-11T09:49:33;103450.13;;;-1.20;42.16
47742;BME280;33504;52.066;6.096;2024-01-11T09:52:02;103458.87;;;-1.38;42.17
47742;BME280;33504;52.066;6.096;2024-01-11T09:54:30;103458.73;;;-1.08;42.26
47742;BME280;33504;52.066;6.096;2024-01-11T09:56:59;103456.04;;;-1.42;42.13
47742;BME280;33504;52.066;6.096;2024-01-11T09:59:26;103457.77;;;-1.26;42.04
47742;BME280;33504;52.066;6.096;2024-01-11T10:01:53;103461.33;;;-1.12;42.09
47742;BME280;33504;52.066;6.096;2024-01-11T10:04:20;103458.02;;;-0.98;42.12
47742;BME280;33504;52.066;6.096;2024-01-11T10:06:49;103460.83;;;-1.19;42.60
47742;BME280;33504;52.066;6.096;2024-01-11T10:09:16;103468.83;;;-0.89;42.39
47742;BME280;33504;52.066;6.096;2024-01-11T10:11:44;103474.71;;;-0.76;42.70
47742;BME280;33504;52.066;6.096;2024-01-11T10:14:12;103480.09;;;-1.45;44.58
47742;BME280;33504;52.066;6.096;2024-01-11T10:16:41;103470.02;;;-1.88;45.77
47742;BME280;33504;52.066;6.096;2024-01-11T10:19:08;103458.69;;;-1.14;44.95
47742;BME280;33504;52.066;6.096;2024-01-11T10:21:38;103451.53;;;-0.78;44.72
47742;BME280;33504;52.066;6.096;2024-01-11T10:24:06;103442.57;;;-0.82;45.13
47742;BME280;33504;52.066;6.096;2024-01-11T10:26:34;103443.41;;;-0.58;44.96
47742;BME280;33504;52.066;6.096;2024-01-11T10:29:02;103447.61;;;-0.84;45.66
47742;BME280;33504;52.066;6.096;2024-01-11T10:31:29;103449.12;;;-0.45;45.59
47742;BME280;33504;52.066;6.096;2024-01-11T10:33:57;103447.52;;;-0.67;45.84
47742;BME280;33504;52.066;6.096;2024-01-11T10:36:24;103438.69;;;-0.43;45.50
47742;BME280;33504;52.066;6.096;2024-01-11T10:38:53;103434.89;;;0.04;45.13
47742;BME280;33504;52.066;6.096;2024-01-11T10:41:20;103439.19;;;-0.07;45.06
47742;BME280;33504;52.066;6.096;2024-01-11T10:43:48;103448.18;;;0.01;45.17
47742;BME280;33504;52.066;6.096;2024-01-11T10:46:20;103449.59;;;0.07;45.07
47742;BME280;33504;52.066;6.096;2024-01-11T10:48:54;103452.37;;;0.17;45.19
47742;BME280;33504;52.066;6.096;2024-01-11T10:51:23;103456.22;;;0.00;45.37
47742;BME280;33504;52.066;6.096;2024-01-11T10:53:53;103467.08;;;0.13;46.12
47742;BME280;33504;52.066;6.096;2024-01-11T10:56:21;103470.50;;;-0.12;46.38
47742;BME280;33504;52.066;6.096;2024-01-11T10:58:50;103476.97;;;0.12;45.95
47742;BME280;33504;52.066;6.096;2024-01-11T11:01:17;103482.36;;;0.18;45.91
47742;BME280;33504;52.066;6.096;2024-01-11T11:03:48;103481.79;;;0.46;45.91
47742;BME280;33504;52.066;6.096;2024-01-11T11:06:20;103484.53;;;0.48;46.11
47742;BME280;33504;52.066;6.096;2024-01-11T11:08:50;103478.75;;;0.38;45.99
47742;BME280;33504;52.066;6.096;2024-01-11T11:11:19;103476.96;;;0.41;46.11
47742;BME280;33504;52.066;6.096;2024-01-11T11:13:48;103476.83;;;0.36;46.47
47742;BME280;33504;52.066;6.096;2024-01-11T11:16:15;103471.29;;;0.64;46.58
47742;BME280;33504;52.066;6.096;2024-01-11T11:18:43;103462.42;;;0.49;46.40
47742;BME280;33504;52.066;6.096;2024-01-11T11:21:11;103452.90;;;0.56;46.38
47742;BME280;33504;52.066;6.096;2024-01-11T11:23:38;103449.47;;;0.59;46.53
47742;BME280;33504;52.066;6.096;2024-01-11T11:26:06;103445.70;;;0.95;46.32
47742;BME280;33504;52.066;6.096;2024-01-11T11:28:34;103436.94;;;0.79;46.40
47742;BME280;33504;52.066;6.096;2024-01-11T11:31:02;103437.89;;;0.64;46.35
47742;BME280;33504;52.066;6.096;2024-01-11T11:33:30;103440.53;;;0.91;46.35
47742;BME280;33504;52.066;6.096;2024-01-11T11:35:58;103444.15;;;0.95;46.38
47742;BME280;33504;52.066;6.096;2024-01-11T11:38:26;103445.58;;;0.76;46.46
47742;BME280;33504;52.066;6.096;2024-01-11T11:40:56;103447.58;;;0.84;46.40
47742;BME280;33504;52.066;6.096;2024-01-11T11:43:23;103447.53;;;1.09;46.45
47742;BME280;33504;52.066;6.096;2024-01-11T11:45:52;103445.31;;;0.66;46.42
47742;BME280;33504;52.066;6.096;2024-01-11T11:48:52;103440.47;;;1.71;46.33
47742;BME280;33504;52.066;6.096;2024-01-11T11:51:20;103434.67;;;0.70;46.44
47742;BME280;33504;52.066;6.096;2024-01-11T11:53:48;103432.22;;;1.22;46.50
47742;BME280;33504;52.066;6.096;2024-01-11T11:56:16;103417.91;;;1.27;46.38
47742;BME280;33504;52.066;6.096;2024-01-11T11:58:46;103414.20;;;1.29;46.53
47742;BME280;33504;52.066;6.096;2024-01-11T12:01:14;103409.81;;;0.99;46.73
47742;BME280;33504;52.066;6.096;2024-01-11T12:03:43;103415.37;;;0.93;46.74
47742;BME280;33504;52.066;6.096;2024-01-11T12:06:11;103417.02;;;1.19;46.81
47742;BME280;33504;52.066;6.096;2024-01-11T12:08:41;103417.19;;;1.21;46.85
47742;BME280;33504;52.066;6.096;2024-01-11T12:11:09;103414.52;;;1.02;46.90
47742;BME280;33504;52.066;6.096;2024-01-11T12:13:36;103412.95;;;1.09;46.84
47742;BME280;33504;52.066;6.096;2024-01-11T12:16:04;103412.86;;;0.89;46.77
47742;BME280;33504;52.066;6.096;2024-01-11T12:18:31;103411.39;;;0.93;46.79
47742;BME280;33504;52.066;6.096;2024-01-11T12:20:59;103413.80;;;0.93;46.77
47742;BME280;33504;52.066;6.096;2024-01-11T12:23:27;103417.59;;;1.29;46.79
47742;BME280;33504;52.066;6.096;2024-01-11T12:25:54;103411.59;;;1.11;46.70
47742;BME280;33504;52.066;6.096;2024-01-11T12:28:21;103406.68;;;1.14;46.68
47742;BME280;33504;52.066;6.096;2024-01-11T12:30:48;103404.76;;;1.14;46.65
47742;BME280;33504;52.066;6.096;2024-01-11T12:33:16;103399.18;;;1.12;46.64
47742;BME280;33504;52.066;6.096;2024-01-11T12:35:43;103393.56;;;1.17;46.76
47742;BME280;33504;52.066;6.096;2024-01-11T12:38:11;103394.38;;;1.20;46.89
47742;BME280;33504;52.066;6.096;2024-01-11T12:40:38;103393.62;;;1.22;46.97
47742;BME280;33504;52.066;6.096;2024-01-11T12:43:06;103386.03;;;1.31;46.81
47742;BME280;33504;52.066;6.096;2024-01-11T12:45:35;103381.40;;;1.90;46.79
47742;BME280;33504;52.066;6.096;2024-01-11T12:48:03;103378.18;;;1.48;46.80
47742;BME280;33504;52.066;6.096;2024-01-11T12:50:35;103375.33;;;1.42;46.82
47742;BME280;33504;52.066;6.096;2024-01-11T12:53:07;103375.38;;;1.45;46.85
47742;BME280;33504;52.066;6.096;2024-01-11T12:55:34;103374.79;;;1.51;46.75